Time;durP1;ratioP1;P1;durP2;ratioP2;P2;SDS_P1;SDS_P2;PMS_P1;PMS_P2;Temp;Humidity;BMP_temperature;BMP_pressure;BME280_temperature;BME280_humidity;BME280_pressure;Samples;Min_cycle;Max_cycle;Signal;HPM_P1;HPM_P2
2021/05/30 00:00:39;;;;;;;4.67;2.67;;;12.10;99.90;;;;;;5069355;28;20239;-72
2021/05/30 00:03:06;;;;;;;3.53;2.63;;;12.20;99.90;;;;;;5071930;28;20262;-72
2021/05/30 00:05:33;;;;;;;2.57;2.37;;;12.10;99.90;;;;;;5086169;28;20705;-72
2021/05/30 00:08:00;;;;;;;3.97;2.10;;;12.10;99.90;;;;;;5084910;28;20578;-72
2021/05/30 00:10:27;;;;;;;3.83;2.33;;;12.10;99.90;;;;;;5081486;28;20288;-73
2021/05/30 00:12:54;;;;;;;2.63;2.17;;;12.10;99.90;;;;;;5079989;28;20220;-73
2021/05/30 00:15:21;;;;;;;3.13;2.30;;;12.10;99.90;;;;;;5078227;28;20221;-73
2021/05/30 00:17:48;;;;;;;3.50;2.30;;;12.10;99.90;;;;;;5076438;28;20284;-74
2021/05/30 00:20:14;;;;;;;3.63;2.50;;;12.10;99.90;;;;;;5072990;28;20367;-73
2021/05/30 00:22:41;;;;;;;2.20;1.97;;;12.10;99.90;;;;;;5078636;28;20224;-72
2021/05/30 00:25:09;;;;;;;4.03;2.23;;;12.10;99.90;;;;;;5068140;28;20236;-73
2021/05/30 00:27:37;;;;;;;2.17;1.90;;;12.10;99.90;;;;;;5074931;28;20228;-72
2021/05/30 00:30:04;;;;;;;2.63;2.30;;;12.10;99.90;;;;;;5091328;28;20269;-72
2021/05/30 00:32:32;;;;;;;4.13;2.17;;;12.10;99.90;;;;;;5081555;28;20311;-73
2021/05/30 00:34:58;;;;;;;4.03;2.13;;;12.20;99.90;;;;;;5071716;28;20205;-73
2021/05/30 00:37:25;;;;;;;2.33;2.03;;;12.10;99.90;;;;;;5077175;28;20668;-73
2021/05/30 00:39:51;;;;;;;2.13;1.93;;;12.20;99.90;;;;;;5073787;28;20638;-73
2021/05/30 00:42:17;;;;;;;3.30;2.37;;;12.10;99.90;;;;;;5076466;28;20205;-72
2021/05/30 00:44:44;;;;;;;2.87;2.10;;;12.20;99.90;;;;;;5083314;28;20649;-72
2021/05/30 00:47:10;;;;;;;2.83;2.00;;;12.20;99.90;;;;;;5084670;28;20643;-71
2021/05/30 00:49:38;;;;;;;2.63;2.10;;;12.20;99.90;;;;;;5092106;28;20291;-73
2021/05/30 00:52:05;;;;;;;6.03;2.20;;;12.20;99.90;;;;;;5090046;28;20312;-73
2021/05/30 00:54:33;;;;;;;2.63;2.10;;;12.20;99.90;;;;;;5069615;28;20221;-73
2021/05/30 00:56:59;;;;;;;2.07;1.83;;;12.20;99.90;;;;;;5071772;28;20255;-72
2021/05/30 00:59:26;;;;;;;2.53;2.00;;;12.20;99.90;;;;;;5074856;28;20201;-73
2021/05/30 01:01:52;;;;;;;2.20;1.90;;;12.20;99.90;;;;;;5080042;28;20303;-74
2021/05/30 01:04:19;;;;;;;2.07;1.87;;;12.20;99.90;;;;;;5075974;28;20261;-74
2021/05/30 01:06:46;;;;;;;2.30;1.80;;;12.20;99.90;;;;;;5078984;28;20289;-72
2021/05/30 01:09:12;;;;;;;2.70;2.10;;;12.20;99.90;;;;;;5074136;28;20651;-72
2021/05/30 01:11:39;;;;;;;2.10;1.50;;;12.10;99.90;;;;;;5081870;28;20684;-72
2021/05/30 01:14:09;;;;;;;3.37;2.20;;;12.20;99.90;;;;;;5075941;28;20320;-72
2021/05/30 01:16:36;;;;;;;1.87;1.77;;;12.20;99.90;;;;;;5074037;28;20228;-72
2021/05/30 01:19:08;;;;;;;2.27;1.60;;;12.20;99.90;;;;;;5070960;28;20313;-72
2021/05/30 01:21:35;;;;;;;2.20;2.00;;;12.20;99.90;;;;;;5087013;28;20308;-72
2021/05/30 01:24:03;;;;;;;2.80;1.90;;;12.20;99.90;;;;;;5072910;28;20316;-73
2021/05/30 01:26:29;;;;;;;2.03;1.70;;;12.30;99.90;;;;;;5081930;28;20201;-72
2021/05/30 01:28:56;;;;;;;2.70;2.00;;;12.30;99.90;;;;;;5084746;28;20236;-73
2021/05/30 01:31:23;;;;;;;1.53;1.43;;;12.30;99.90;;;;;;5081065;28;20299;-73
2021/05/30 01:33:49;;;;;;;1.50;1.30;;;12.30;99.90;;;;;;5090090;28;20201;-72
2021/05/30 01:36:16;;;;;;;2.37;2.03;;;12.30;99.90;;;;;;5088151;28;20233;-72
2021/05/30 01:38:42;;;;;;;1.83;1.70;;;12.40;99.90;;;;;;5077614;28;20285;-72
2021/05/30 01:41:10;;;;;;;2.87;1.30;;;12.30;99.90;;;;;;5075901;28;20247;-73
2021/05/30 01:43:36;;;;;;;2.57;1.53;;;12.40;99.90;;;;;;5074838;28;20220;-72
2021/05/30 01:46:03;;;;;;;2.33;1.60;;;12.30;99.90;;;;;;5078097;28;20213;-73
2021/05/30 01:48:30;;;;;;;1.73;1.57;;;12.30;99.90;;;;;;5088184;28;20220;-73
2021/05/30 01:50:56;;;;;;;1.50;1.37;;;12.40;99.90;;;;;;5082124;28;20213;-72
2021/05/30 01:53:30;;;;;;;1.97;1.50;;;12.30;99.90;;;;;;5075832;28;20213;-73
2021/05/30 01:58:43;;;;;;;1.40;1.30;;;12.30;99.90;;;;;;5072836;28;20213;-72
2021/05/30 02:01:12;;;;;;;1.63;1.53;;;12.30;99.90;;;;;;5079748;28;20209;-72
2021/05/30 02:03:42;;;;;;;1.87;1.60;;;12.30;99.90;;;;;;5074646;28;20205;-74
2021/05/30 02:06:10;;;;;;;1.63;1.53;;;12.30;99.90;;;;;;5081551;28;20234;-74
2021/05/30 02:08:39;;;;;;;2.97;1.63;;;12.20;99.90;;;;;;5079921;28;20216;-73
2021/05/30 02:11:09;;;;;;;2.17;1.73;;;12.20;99.90;;;;;;5085334;28;20216;-74
2021/05/30 02:13:35;;;;;;;2.93;1.83;;;12.20;99.90;;;;;;5074893;28;20232;-73
2021/05/30 02:16:04;;;;;;;1.70;1.60;;;12.30;99.90;;;;;;5080699;28;20209;-73
2021/05/30 02:18:31;;;;;;;2.00;1.70;;;12.20;99.90;;;;;;5082939;28;20232;-73
2021/05/30 02:20:57;;;;;;;5.23;1.90;;;12.20;99.90;;;;;;5075302;28;20284;-73
2021/05/30 02:23:23;;;;;;;1.93;1.60;;;12.30;99.90;;;;;;5077335;28;20338;-73
2021/05/30 02:25:50;;;;;;;2.20;1.63;;;12.30;99.90;;;;;;5086185;28;20670;-73
2021/05/30 02:28:16;;;;;;;2.00;1.80;;;12.30;99.90;;;;;;5078859;28;20276;-73
2021/05/30 02:30:43;;;;;;;1.57;1.47;;;12.20;99.90;;;;;;5072674;28;20208;-73
2021/05/30 02:33:10;;;;;;;1.80;1.70;;;12.30;99.90;;;;;;5074639;28;20235;-73
2021/05/30 02:35:36;;;;;;;3.27;1.60;;;12.20;99.90;;;;;;5077896;28;20228;-73
2021/05/30 02:38:04;;;;;;;2.13;1.77;;;12.30;99.90;;;;;;5075920;28;20206;-74
2021/05/30 02:40:31;;;;;;;3.13;1.40;;;12.30;99.90;;;;;;5092718;28;20205;-74
2021/05/30 02:42:58;;;;;;;6.33;1.60;;;12.30;99.90;;;;;;5090030;28;20196;-73
2021/05/30 02:45:24;;;;;;;2.00;1.40;;;12.40;99.90;;;;;;5075152;28;20667;-74
2021/05/30 02:47:51;;;;;;;1.87;1.47;;;12.30;99.90;;;;;;5075628;28;20374;-73
2021/05/30 02:50:18;;;;;;;1.90;1.50;;;12.30;99.90;;;;;;5076129;28;20209;-74
2021/05/30 02:52:45;;;;;;;1.87;1.60;;;12.40;99.90;;;;;;5072534;28;20291;-73
2021/05/30 02:55:12;;;;;;;2.17;1.43;;;12.30;99.90;;;;;;5079735;28;20209;-74
2021/05/30 02:57:39;;;;;;;1.60;1.50;;;12.40;99.90;;;;;;5080619;28;20232;-73
2021/05/30 03:00:07;;;;;;;5.13;1.73;;;12.30;99.90;;;;;;5078109;28;20205;-73
2021/05/30 03:02:33;;;;;;;3.40;1.43;;;12.30;99.90;;;;;;5083734;28;20212;-72
2021/05/30 03:05:00;;;;;;;1.67;1.57;;;12.30;99.90;;;;;;5092998;28;20709;-73
2021/05/30 03:07:27;;;;;;;2.57;1.40;;;12.30;99.90;;;;;;5085893;28;20205;-72
2021/05/30 03:09:54;;;;;;;2.03;1.80;;;12.30;99.90;;;;;;5080868;28;20638;-73
2021/05/30 03:12:20;;;;;;;1.47;1.33;;;12.40;99.90;;;;;;5072484;28;20231;-74
2021/05/30 03:14:47;;;;;;;1.47;1.33;;;12.40;99.90;;;;;;5079767;28;20259;-72
2021/05/30 03:17:13;;;;;;;1.53;1.30;;;12.40;99.90;;;;;;5079255;28;20371;-72
2021/05/30 03:19:40;;;;;;;2.27;1.37;;;12.40;99.90;;;;;;5082541;28;20201;-73
2021/05/30 03:22:07;;;;;;;3.33;1.67;;;12.40;99.90;;;;;;5076857;28;20304;-73
2021/05/30 03:24:34;;;;;;;2.07;1.87;;;12.40;99.90;;;;;;5074362;28;20209;-73
2021/05/30 03:27:00;;;;;;;3.13;1.73;;;12.40;99.90;;;;;;5080033;28;20237;-72
2021/05/30 03:29:27;;;;;;;2.20;1.93;;;12.50;99.90;;;;;;5076044;28;20232;-72
2021/05/30 03:31:54;;;;;;;1.70;1.60;;;12.50;99.90;;;;;;5073264;28;20222;-72
2021/05/30 03:34:20;;;;;;;2.20;1.80;;;12.50;99.90;;;;;;5073907;28;20208;-72
2021/05/30 03:36:52;;;;;;;2.83;1.47;;;12.50;99.90;;;;;;5081931;28;20299;-72
2021/05/30 03:39:19;;;;;;;2.03;1.80;;;12.50;99.90;;;;;;5072073;28;20205;-73
2021/05/30 03:41:53;;;;;;;1.63;1.53;;;12.50;99.90;;;;;;5075473;28;20646;-72
2021/05/30 03:44:19;;;;;;;4.83;1.70;;;12.50;99.90;;;;;;5081540;28;20259;-73
2021/05/30 03:46:46;;;;;;;1.63;1.53;;;12.60;99.90;;;;;;5065601;28;20212;-72
2021/05/30 03:49:12;;;;;;;2.53;1.60;;;12.70;99.90;;;;;;5089849;28;20204;-73
2021/05/30 03:51:38;;;;;;;3.20;1.80;;;12.70;99.90;;;;;;5088894;28;20233;-72
2021/05/30 03:54:05;;;;;;;1.47;1.37;;;12.70;99.90;;;;;;5070097;28;20214;-73
2021/05/30 03:56:31;;;;;;;1.97;1.57;;;12.70;99.90;;;;;;5071217;28;20229;-73
2021/05/30 03:58:59;;;;;;;1.90;1.80;;;12.70;99.90;;;;;;5079017;28;20254;-73
2021/05/30 04:01:25;;;;;;;4.70;1.57;;;12.70;99.90;;;;;;5079184;28;20243;-73
2021/05/30 04:03:51;;;;;;;2.00;1.90;;;12.70;99.90;;;;;;5071362;28;20233;-73
2021/05/30 04:06:18;;;;;;;2.03;1.83;;;12.60;99.90;;;;;;5090882;28;20208;-72
2021/05/30 04:08:46;;;;;;;3.13;2.07;;;12.60;99.90;;;;;;5082738;28;20705;-73
2021/05/30 04:11:13;;;;;;;4.67;1.73;;;12.60;99.90;;;;;;5084115;28;20208;-74
2021/05/30 04:13:39;;;;;;;2.10;2.00;;;12.60;99.90;;;;;;5076190;28;20224;-72
2021/05/30 04:16:07;;;;;;;2.37;1.90;;;12.60;99.90;;;;;;5077985;28;20480;-74
2021/05/30 04:18:33;;;;;;;1.83;1.70;;;12.60;99.90;;;;;;5069689;28;20291;-73
2021/05/30 04:20:59;;;;;;;1.80;1.70;;;12.70;99.90;;;;;;5073811;28;20205;-73
2021/05/30 04:23:26;;;;;;;2.27;2.00;;;12.70;99.90;;;;;;5082013;28;20804;-73
2021/05/30 04:25:52;;;;;;;1.90;1.80;;;12.60;99.90;;;;;;5085225;28;20292;-72
2021/05/30 04:28:19;;;;;;;2.80;1.87;;;12.70;99.90;;;;;;5073038;28;20233;-73
2021/05/30 04:30:45;;;;;;;2.07;1.90;;;12.70;99.90;;;;;;5070961;28;20514;-72
2021/05/30 04:33:13;;;;;;;3.20;1.80;;;12.80;99.90;;;;;;5074307;28;20233;-72
2021/05/30 04:35:39;;;;;;;2.00;1.90;;;12.80;99.90;;;;;;5075372;28;20236;-72
2021/05/30 04:38:05;;;;;;;3.57;2.20;;;12.80;99.90;;;;;;5075590;28;20713;-73
2021/05/30 04:40:32;;;;;;;2.07;1.60;;;12.90;99.90;;;;;;5090055;28;20307;-72
2021/05/30 04:42:59;;;;;;;2.10;1.90;;;12.80;99.90;;;;;;5089167;28;20710;-74
2021/05/30 04:45:25;;;;;;;2.00;1.80;;;12.90;99.90;;;;;;5074299;28;20216;-74
2021/05/30 04:47:51;;;;;;;2.37;1.80;;;12.80;99.90;;;;;;5082784;28;20211;-72
2021/05/30 04:50:19;;;;;;;1.97;1.80;;;12.80;99.90;;;;;;5080002;28;20250;-73
2021/05/30 04:52:45;;;;;;;1.60;1.50;;;12.80;99.90;;;;;;5068899;28;20578;-72
2021/05/30 04:55:12;;;;;;;4.03;2.17;;;12.90;99.90;;;;;;5070098;28;20209;-73
2021/05/30 04:57:39;;;;;;;2.27;2.00;;;13.00;99.90;;;;;;5088591;28;20712;-74
2021/05/30 05:00:08;;;;;;;2.10;1.90;;;13.00;99.90;;;;;;5070049;28;20209;-73
2021/05/30 05:02:34;;;;;;;2.10;1.90;;;13.00;99.90;;;;;;5066060;28;20208;-73
2021/05/30 05:05:01;;;;;;;5.43;2.10;;;13.10;99.90;;;;;;5090346;28;20291;-72
2021/05/30 05:07:29;;;;;;;2.47;2.23;;;13.20;99.90;;;;;;5080415;28;20209;-72
2021/05/30 05:09:55;;;;;;;2.13;1.93;;;13.20;99.90;;;;;;5085022;28;20293;-73
2021/05/30 05:12:21;;;;;;;2.63;1.73;;;13.30;99.90;;;;;;5065340;28;20730;-72
2021/05/30 05:14:48;;;;;;;2.57;1.87;;;13.40;99.90;;;;;;5075673;28;20722;-72
2021/05/30 05:17:14;;;;;;;3.47;1.80;;;13.50;99.90;;;;;;5078286;28;20208;-72
2021/05/30 05:19:41;;;;;;;2.00;1.83;;;13.50;99.90;;;;;;5071101;28;20655;-73
2021/05/30 05:22:07;;;;;;;2.87;1.83;;;13.50;99.90;;;;;;5086877;28;20215;-72
2021/05/30 05:24:34;;;;;;;2.40;2.00;;;13.60;99.90;;;;;;5086766;28;20220;-73
2021/05/30 05:27:01;;;;;;;2.03;1.70;;;13.60;99.90;;;;;;5075432;28;20629;-73
2021/05/30 05:29:27;;;;;;;2.77;1.83;;;13.60;99.90;;;;;;5079173;28;20288;-73
2021/05/30 05:31:54;;;;;;;2.67;1.90;;;13.60;99.90;;;;;;5072450;28;20225;-72
2021/05/30 05:34:20;;;;;;;1.57;1.47;;;13.70;99.90;;;;;;5064543;28;20210;-73
2021/05/30 05:36:46;;;;;;;2.37;2.10;;;13.70;99.90;;;;;;5073494;28;20205;-73
2021/05/30 05:39:13;;;;;;;4.03;1.90;;;13.80;99.90;;;;;;5080845;28;20215;-72
2021/05/30 05:41:40;;;;;;;2.53;1.90;;;13.90;99.90;;;;;;5067582;28;20212;-73
2021/05/30 05:44:06;;;;;;;1.90;1.80;;;14.00;99.90;;;;;;5063297;28;20201;-72
2021/05/30 05:46:33;;;;;;;1.77;1.67;;;14.00;99.90;;;;;;5062662;28;20336;-72
2021/05/30 05:48:59;;;;;;;2.23;2.00;;;14.10;99.90;;;;;;5077375;28;20288;-74
2021/05/30 05:51:26;;;;;;;2.20;2.00;;;14.10;99.90;;;;;;5077298;28;20265;-73
2021/05/30 05:53:52;;;;;;;2.03;1.90;;;14.20;99.90;;;;;;5061892;28;20677;-73
2021/05/30 05:56:18;;;;;;;2.63;2.10;;;14.30;99.90;;;;;;5065978;28;20721;-74
2021/05/30 05:58:46;;;;;;;2.57;2.17;;;14.40;99.90;;;;;;5076516;28;20231;-73
2021/05/30 06:01:13;;;;;;;2.30;2.10;;;14.40;99.90;;;;;;5076365;28;20258;-75
2021/05/30 06:03:39;;;;;;;3.40;2.27;;;14.50;99.90;;;;;;5063947;28;20241;-72
2021/05/30 06:06:06;;;;;;;2.20;1.93;;;14.60;99.90;;;;;;5068637;28;20265;-73
2021/05/30 06:08:32;;;;;;;2.43;2.00;;;14.70;99.90;;;;;;5066885;28;20269;-72
2021/05/30 06:10:59;;;;;;;2.20;2.00;;;14.70;99.90;;;;;;5062304;28;20673;-72
2021/05/30 06:13:25;;;;;;;2.53;2.17;;;14.70;99.90;;;;;;5065058;28;20728;-70
2021/05/30 06:15:53;;;;;;;6.17;2.30;;;14.80;99.90;;;;;;5074035;28;20212;-73
2021/05/30 06:18:22;;;;;;;2.47;2.07;;;14.80;99.90;;;;;;5075415;28;20258;-73
2021/05/30 06:20:49;;;;;;;2.10;1.90;;;14.80;99.90;;;;;;5077299;28;20241;-72
2021/05/30 06:23:16;;;;;;;2.13;1.93;;;14.80;99.90;;;;;;5076180;28;20197;-71
2021/05/30 06:25:43;;;;;;;2.77;2.10;;;14.90;99.90;;;;;;5076605;28;20221;-72
2021/05/30 06:28:10;;;;;;;2.10;1.70;;;14.90;99.90;;;;;;5077163;28;20209;-71
2021/05/30 06:30:39;;;;;;;5.13;2.20;;;15.00;99.90;;;;;;5077983;28;20256;-72
2021/05/30 06:33:08;;;;;;;3.27;2.30;;;15.20;99.90;;;;;;5077265;28;20228;-72
2021/05/30 06:35:39;;;;;;;2.57;2.37;;;15.30;99.90;;;;;;5080196;28;20198;-73
2021/05/30 06:38:05;;;;;;;2.80;1.93;;;15.50;99.90;;;;;;5079219;28;20239;-72
2021/05/30 06:40:32;;;;;;;2.20;2.00;;;15.70;99.90;;;;;;5080017;28;20342;-73
2021/05/30 06:42:59;;;;;;;2.93;2.03;;;15.80;99.90;;;;;;5079624;28;20256;-72
2021/05/30 06:45:25;;;;;;;2.03;1.80;;;16.00;99.90;;;;;;5071692;28;20561;-73
2021/05/30 06:47:53;;;;;;;3.17;2.10;;;16.20;99.90;;;;;;5069305;28;20213;-73
2021/05/30 06:50:21;;;;;;;2.97;2.23;;;16.30;99.90;;;;;;5074753;28;20221;-70
2021/05/30 06:52:47;;;;;;;4.13;2.13;;;16.40;99.90;;;;;;5079836;28;20221;-74
2021/05/30 06:55:15;;;;;;;2.00;1.90;;;16.40;99.90;;;;;;5080297;28;20201;-75
2021/05/30 06:57:43;;;;;;;2.50;1.90;;;16.40;99.90;;;;;;5088414;28;20233;-76
2021/05/30 07:00:13;;;;;;;2.37;2.17;;;16.40;99.90;;;;;;5088713;28;20209;-76
2021/05/30 07:02:40;;;;;;;4.33;2.60;;;16.40;99.90;;;;;;5086949;28;20201;-71
2021/05/30 07:05:07;;;;;;;2.10;1.90;;;16.40;99.90;;;;;;5082233;28;20299;-71
2021/05/30 07:07:34;;;;;;;3.03;2.00;;;16.30;99.90;;;;;;5082076;28;20288;-70
2021/05/30 07:10:01;;;;;;;2.57;2.00;;;16.30;99.90;;;;;;5082746;28;20206;-71
2021/05/30 07:12:27;;;;;;;5.00;1.93;;;16.30;99.90;;;;;;5069101;28;20368;-71
2021/05/30 07:14:53;;;;;;;5.53;2.03;;;16.30;99.90;;;;;;5075860;28;21038;-71
2021/05/30 07:17:20;;;;;;;2.33;2.00;;;16.40;99.90;;;;;;5078806;28;20300;-70
2021/05/30 07:19:46;;;;;;;1.70;1.60;;;16.50;99.90;;;;;;5080492;28;20244;-70
2021/05/30 07:22:13;;;;;;;2.97;1.87;;;16.60;99.90;;;;;;5071364;28;20208;-71
2021/05/30 07:24:40;;;;;;;3.27;1.63;;;16.70;99.90;;;;;;5074196;28;20296;-70
2021/05/30 07:27:07;;;;;;;2.53;1.97;;;16.80;99.90;;;;;;5075304;28;20217;-71
2021/05/30 07:29:34;;;;;;;1.63;1.53;;;16.80;99.90;;;;;;5075070;28;20273;-71
2021/05/30 07:32:00;;;;;;;2.40;1.80;;;16.90;99.90;;;;;;5075614;28;20217;-71
2021/05/30 07:34:26;;;;;;;2.77;1.80;;;17.00;99.90;;;;;;5075272;28;20680;-73
2021/05/30 07:36:53;;;;;;;1.90;1.80;;;17.10;99.90;;;;;;5076224;28;20289;-72
2021/05/30 07:39:19;;;;;;;2.80;1.83;;;17.20;99.90;;;;;;5076563;28;20297;-72
2021/05/30 07:41:47;;;;;;;1.93;1.73;;;17.30;99.90;;;;;;5071410;28;20237;-75
2021/05/30 07:44:13;;;;;;;4.10;1.80;;;17.30;99.90;;;;;;5073912;28;20218;-70
2021/05/30 07:46:40;;;;;;;3.40;2.00;;;17.40;99.90;;;;;;5068399;28;20209;-69
2021/05/30 07:49:06;;;;;;;2.47;1.70;;;17.50;99.50;;;;;;5074387;28;20304;-75
2021/05/30 07:51:32;;;;;;;2.90;1.87;;;17.50;99.00;;;;;;5075392;28;20205;-73
2021/05/30 07:53:59;;;;;;;2.73;1.70;;;17.60;99.00;;;;;;5074160;28;20288;-74
2021/05/30 07:56:26;;;;;;;2.77;1.90;;;17.80;99.00;;;;;;5074642;28;20240;-73
2021/05/30 07:58:53;;;;;;;4.63;2.00;;;17.90;98.40;;;;;;5074287;28;20205;-74
2021/05/30 08:01:19;;;;;;;2.20;1.90;;;18.00;98.00;;;;;;5073354;28;20685;-72
2021/05/30 08:03:46;;;;;;;4.30;2.50;;;18.10;97.60;;;;;;5073783;28;20208;-72
2021/05/30 08:06:12;;;;;;;1.80;1.70;;;18.10;96.50;;;;;;5073475;28;20300;-74
2021/05/30 08:08:38;;;;;;;1.87;1.70;;;18.20;96.00;;;;;;5067938;28;20216;-73
2021/05/30 08:11:05;;;;;;;2.00;1.80;;;18.20;95.60;;;;;;5069319;28;20240;-72
2021/05/30 08:13:31;;;;;;;1.87;1.77;;;18.30;95.50;;;;;;5071960;28;20247;-73
2021/05/30 08:15:58;;;;;;;2.97;1.80;;;18.40;95.10;;;;;;5068529;28;20206;-73
2021/05/30 08:18:25;;;;;;;1.70;1.60;;;18.50;94.50;;;;;;5073054;28;20209;-74
2021/05/30 08:20:51;;;;;;;3.65;1.80;;;18.70;94.00;;;;;;5074189;28;20300;-73
2021/05/30 08:23:17;;;;;;;2.90;1.50;;;18.90;93.50;;;;;;5073625;28;20198;-73
2021/05/30 08:25:45;;;;;;;1.90;1.67;;;19.10;92.50;;;;;;5074311;28;20244;-73
2021/05/30 08:28:12;;;;;;;2.78;1.60;;;19.30;91.70;;;;;;5072284;28;20670;-73
2021/05/30 08:30:39;;;;;;;2.08;1.70;;;19.40;90.90;;;;;;5064086;28;20626;-72
2021/05/30 08:33:07;;;;;;;1.70;1.38;;;19.50;90.20;;;;;;5078331;28;20353;-69
2021/05/30 08:35:34;;;;;;;3.17;1.70;;;19.50;89.90;;;;;;5068588;28;20304;-73
2021/05/30 08:38:00;;;;;;;3.60;1.40;;;19.70;89.60;;;;;;5070751;28;20669;-72
2021/05/30 08:40:26;;;;;;;1.30;1.20;;;19.80;88.50;;;;;;5061533;28;20240;-74
2021/05/30 08:42:53;;;;;;;1.63;1.30;;;19.90;87.20;;;;;;5075051;28;20284;-70
2021/05/30 08:45:20;;;;;;;2.53;1.50;;;19.90;86.00;;;;;;5070824;28;20258;-70
2021/05/30 08:47:47;;;;;;;2.10;1.50;;;20.00;85.30;;;;;;5069856;28;20708;-71
2021/05/30 08:50:16;;;;;;;5.45;2.08;;;20.10;84.80;;;;;;5072786;28;20717;-72
2021/05/30 08:52:43;;;;;;;1.77;1.67;;;20.30;83.80;;;;;;5071436;28;20302;-73
2021/05/30 08:55:11;;;;;;;3.38;2.15;;;20.40;83.20;;;;;;5073482;28;20296;-73
2021/05/30 08:57:37;;;;;;;3.20;1.55;;;20.60;82.00;;;;;;5069032;28;20661;-72
2021/05/30 09:00:06;;;;;;;1.52;1.42;;;20.80;80.00;;;;;;5072051;28;20292;-73
2021/05/30 09:02:32;;;;;;;1.67;1.50;;;20.90;78.70;;;;;;5065743;28;20202;-72
2021/05/30 09:05:03;;;;;;;2.15;1.67;;;20.90;76.90;;;;;;5068330;28;20213;-72
2021/05/30 09:07:44;;;;;;;1.30;1.20;;;20.80;75.00;;;;;;5071167;28;20285;-72
2021/05/30 09:10:13;;;;;;;2.35;1.60;;;20.60;74.60;;;;;;5075566;28;20241;-73
2021/05/30 09:12:42;;;;;;;1.67;1.52;;;20.50;75.50;;;;;;5082131;28;20225;-70
2021/05/30 09:15:14;;;;;;;1.90;1.70;;;20.50;76.50;;;;;;5072792;28;20690;-71
2021/05/30 09:17:40;;;;;;;1.45;1.35;;;20.70;75.80;;;;;;5081434;28;20201;-73
2021/05/30 09:20:10;;;;;;;1.73;1.60;;;20.80;74.70;;;;;;5070596;28;20201;-73
2021/05/30 09:22:37;;;;;;;2.70;1.52;;;20.70;73.50;;;;;;5071550;28;20208;-71
2021/05/30 09:25:21;;;;;;;1.60;1.38;;;20.50;73.80;;;;;;5079430;28;20235;-71
2021/05/30 09:27:50;;;;;;;1.73;1.55;;;20.40;74.40;;;;;;5077707;28;20261;-71
2021/05/30 09:30:19;;;;;;;1.50;1.40;;;20.20;75.10;;;;;;5072687;28;20718;-71
2021/05/30 09:33:10;;;;;;;2.10;1.45;;;20.10;75.00;;;;;;5067849;28;20213;-72
2021/05/30 09:35:53;;;;;;;2.63;1.30;;;19.90;74.80;;;;;;5079563;28;20325;-72
2021/05/30 09:38:29;;;;;;;3.03;1.15;;;19.70;74.10;;;;;;5069729;28;20296;-72
2021/05/30 09:40:58;;;;;;;1.65;1.30;;;19.50;74.30;;;;;;5076791;28;20215;-71
2021/05/30 09:43:25;;;;;;;1.50;1.40;;;19.30;74.60;;;;;;5073783;28;20193;-72
2021/05/30 09:46:10;;;;;;;1.30;1.20;;;19.20;74.10;;;;;;5079733;28;20264;-71
2021/05/30 09:48:40;;;;;;;1.27;0.88;;;19.10;73.90;;;;;;5073686;28;20953;-71
2021/05/30 09:51:32;;;;;;;1.10;1.00;;;19.10;74.00;;;;;;5086478;28;20630;-73
2021/05/30 09:54:01;;;;;;;1.02;1.02;;;19.10;73.90;;;;;;5083394;28;20338;-71
2021/05/30 09:56:34;;;;;;;2.55;1.20;;;19.00;73.80;;;;;;5078395;28;20289;-71
2021/05/30 09:59:03;;;;;;;1.13;1.02;;;18.90;73.20;;;;;;5077972;28;20284;-71
2021/05/30 10:01:45;;;;;;;1.13;1.02;;;18.90;73.50;;;;;;5087522;28;20272;-72
2021/05/30 10:04:12;;;;;;;1.50;1.20;;;18.90;73.60;;;;;;5085149;28;20292;-71
2021/05/30 10:06:39;;;;;;;1.52;1.42;;;18.90;73.30;;;;;;5092859;28;20293;-71
2021/05/30 10:09:06;;;;;;;1.40;1.30;;;18.90;73.20;;;;;;5091826;28;20240;-71
2021/05/30 10:11:33;;;;;;;2.77;1.20;;;18.90;72.50;;;;;;5085258;28;20213;-72
2021/05/30 10:14:01;;;;;;;1.80;1.63;;;18.90;72.50;;;;;;5086784;28;20229;-72
2021/05/30 10:16:29;;;;;;;2.05;1.08;;;18.80;72.10;;;;;;5081533;28;20206;-72
2021/05/30 10:18:56;;;;;;;1.30;1.20;;;18.80;72.30;;;;;;5075888;28;20216;-72
2021/05/30 10:21:23;;;;;;;2.50;1.33;;;18.80;72.00;;;;;;5077130;28;20287;-71
2021/05/30 10:23:52;;;;;;;1.20;1.10;;;18.80;72.20;;;;;;5086014;28;20224;-70
2021/05/30 10:26:20;;;;;;;1.00;1.00;;;18.80;72.40;;;;;;5076289;28;20232;-72
2021/05/30 10:28:52;;;;;;;1.15;1.10;;;18.70;72.40;;;;;;5070782;28;20246;-73
2021/05/30 10:31:22;;;;;;;1.50;1.40;;;18.70;73.40;;;;;;5081041;28;20316;-72
2021/05/30 10:34:14;;;;;;;3.50;1.43;;;18.70;73.50;;;;;;5076318;28;20219;-74
2021/05/30 10:36:41;;;;;;;2.10;1.25;;;18.60;74.20;;;;;;5075064;28;20689;-72
2021/05/30 10:39:35;;;;;;;1.50;1.40;;;18.50;74.80;;;;;;5080523;28;20211;-72
2021/05/30 10:42:09;;;;;;;1.67;1.13;;;18.50;75.00;;;;;;5072870;28;20252;-72
2021/05/30 10:45:01;;;;;;;1.40;1.30;;;18.30;74.50;;;;;;5092742;28;20292;-71
2021/05/30 10:48:19;;;;;;;1.53;0.90;;;18.20;73.90;;;;;;5076729;28;20209;-72
2021/05/30 10:50:57;;;;;;;2.13;1.03;;;18.10;73.40;;;;;;5072544;28;20205;-72
2021/05/30 10:53:33;;;;;;;1.30;1.20;;;18.00;72.90;;;;;;5069987;28;20258;-72
2021/05/30 10:56:29;;;;;;;1.80;1.70;;;18.00;73.50;;;;;;5071835;28;20201;-68
2021/05/30 10:59:22;;;;;;;1.70;1.40;;;18.00;74.20;;;;;;5044287;28;20206;-73
2021/05/30 11:01:51;;;;;;;1.40;1.30;;;18.00;75.10;;;;;;5066755;28;20202;-72
2021/05/30 11:04:37;;;;;;;1.63;1.53;;;18.10;75.60;;;;;;5076813;28;20283;-72
2021/05/30 11:07:20;;;;;;;2.30;1.17;;;18.20;75.40;;;;;;5076376;28;20288;-72
2021/05/30 11:10:05;;;;;;;5.23;1.10;;;18.20;74.30;;;;;;5047416;28;20202;-72
2021/05/30 11:12:33;;;;;;;1.30;1.20;;;18.30;74.90;;;;;;5061616;28;20226;-72
2021/05/30 11:15:32;;;;;;;2.30;1.13;;;18.50;74.20;;;;;;5075505;28;20693;-71
2021/05/30 11:18:01;;;;;;;1.20;1.10;;;18.60;73.20;;;;;;5076254;28;20557;-71
2021/05/30 11:20:37;;;;;;;1.67;1.03;;;18.90;72.70;;;;;;5068631;28;20241;-72
2021/05/30 11:23:05;;;;;;;0.93;0.90;;;19.10;72.00;;;;;;5076285;28;20197;-71
2021/05/30 11:25:38;;;;;;;1.35;1.20;;;19.40;71.60;;;;;;5067275;28;20709;-72
2021/05/30 11:28:08;;;;;;;1.52;1.40;;;19.60;70.20;;;;;;5075794;28;20623;-72
2021/05/30 11:30:48;;;;;;;2.33;1.20;;;19.70;69.40;;;;;;5075958;28;20227;-72
2021/05/30 11:33:39;;;;;;;2.63;1.40;;;19.90;69.00;;;;;;5063962;28;20577;-72
2021/05/30 11:36:07;;;;;;;2.10;1.30;;;20.10;68.30;;;;;;5075607;28;20656;-72
2021/05/30 11:38:39;;;;;;;2.55;1.25;;;20.30;66.30;;;;;;5074577;28;20239;-72
2021/05/30 11:41:14;;;;;;;2.20;1.50;;;20.40;66.00;;;;;;5056557;28;20356;-73
2021/05/30 11:43:56;;;;;;;0.93;0.80;;;20.40;64.60;;;;;;5072040;28;20280;-72
2021/05/30 11:46:23;;;;;;;1.52;1.23;;;20.40;63.70;;;;;;5076124;28;20545;-72
2021/05/30 11:49:03;;;;;;;2.33;1.10;;;20.50;63.70;;;;;;5076074;28;20201;-73
2021/05/30 11:51:47;;;;;;;2.42;1.10;;;20.50;63.40;;;;;;5075388;28;20240;-73
2021/05/30 11:54:13;;;;;;;1.58;1.02;;;20.60;63.10;;;;;;5071171;28;20231;-73
2021/05/30 11:56:41;;;;;;;1.63;1.02;;;20.60;62.80;;;;;;5075521;28;20600;-72
2021/05/30 11:59:08;;;;;;;1.30;0.90;;;20.80;62.90;;;;;;5071187;28;20241;-73
2021/05/30 12:01:48;;;;;;;3.17;1.00;;;20.90;62.10;;;;;;5074016;28;20727;-72
2021/05/30 12:04:33;;;;;;;0.80;0.80;;;21.00;62.00;;;;;;5073950;28;20205;-73
2021/05/30 12:07:00;;;;;;;1.05;1.00;;;21.30;61.80;;;;;;5074690;28;20222;-73
2021/05/30 12:09:42;;;;;;;1.50;1.17;;;21.40;61.00;;;;;;5074655;28;20209;-71
2021/05/30 12:12:35;;;;;;;1.33;1.23;;;21.60;61.90;;;;;;5061755;28;20213;-75
2021/05/30 12:15:07;;;;;;;2.38;1.20;;;21.80;61.40;;;;;;5074517;28;20320;-72
2021/05/30 12:17:34;;;;;;;2.33;2.08;;;21.90;60.70;;;;;;5073834;28;20208;-70
2021/05/30 12:20:02;;;;;;;1.30;1.13;;;22.00;61.00;;;;;;5069176;28;20277;-73
2021/05/30 12:22:30;;;;;;;2.58;1.15;;;22.10;60.90;;;;;;5070141;28;20203;-69
2021/05/30 12:24:58;;;;;;;3.50;1.42;;;22.10;59.70;;;;;;5067843;28;20237;-70
2021/05/30 12:27:26;;;;;;;1.50;1.02;;;22.20;60.00;;;;;;5055341;28;20632;-71
2021/05/30 12:29:53;;;;;;;2.95;1.10;;;22.20;59.20;;;;;;5060436;28;20643;-74
2021/05/30 12:32:21;;;;;;;1.27;1.17;;;22.20;59.40;;;;;;5069472;28;20233;-73
2021/05/30 12:34:49;;;;;;;3.55;1.27;;;22.20;59.10;;;;;;5059845;28;20257;-72
2021/05/30 12:37:17;;;;;;;1.40;1.30;;;22.20;58.70;;;;;;5073940;28;20292;-71
2021/05/30 12:39:47;;;;;;;1.10;1.00;;;22.20;58.00;;;;;;5068442;28;20215;-73
2021/05/30 12:42:17;;;;;;;1.30;1.20;;;22.20;58.00;;;;;;5067869;28;20598;-74
2021/05/30 12:44:49;;;;;;;3.70;1.00;;;22.10;57.90;;;;;;5066167;28;20201;-72
2021/05/30 12:47:19;;;;;;;2.53;1.10;;;22.10;57.70;;;;;;5060354;28;20603;-70
2021/05/30 12:49:53;;;;;;;3.85;1.23;;;22.10;57.50;;;;;;5073978;28;20213;-71
2021/05/30 12:52:21;;;;;;;0.90;0.90;;;21.90;56.80;;;;;;5067910;28;20203;-69
2021/05/30 12:54:58;;;;;;;1.83;1.17;;;21.80;56.80;;;;;;5058505;28;20673;-71
2021/05/30 12:57:34;;;;;;;2.22;1.10;;;21.60;56.60;;;;;;5071555;28;20237;-73
2021/05/30 13:00:00;;;;;;;2.83;1.15;;;21.40;57.10;;;;;;5064813;28;20208;-75